• Join FlightAware (Why Join?)
  • Login
  • US Flag 
Gobble Gobble! 
03:24AM EST


 

Airport Tracker/Info


-or-


 

Live Flight TrackerFlight Track Log ✈ SWA1263 ✈ 28-May-2013 ✈ KHOU - KMDW

Flight Track Log - Related Links

Times and Time Zones

All times are in EDT time to prevent confusion due to time zone crossing. See the SWA1263 flight status page for this flight to view local times or setup timezone preferences in your user account.

Time Position Orientation Groundspeed Altitude Reporting Facility
EDT Latitude Longitude Course Direction KTS MPH feet Rate Location/Type
10:45AM 29.6303 -95.2561 12° North 159 183 1,300  Level Houston Center
10:46AM 29.6856 -95.2422 12° North 276 318 3,300 2,280 Climbing Houston Center
10:47AM 29.7475 -95.2636 343° North 263 303 5,900 2,640 Climbing Houston Center
10:48AM 29.8250 -95.3003 338° Northwest 294 338 8,700 2,460 Climbing Houston Center
10:49AM 29.9111 -95.3058 357° North 320 368 11,000 2,220 Climbing Houston Center
10:50AM 30.0289 -95.2756 13° North 355 409 13,300 2,220 Climbing Houston Center
10:51AM 30.1325 -95.2328 20° North 386 444 15,700 2,340 Climbing Houston Center
10:52AM 30.2342 -95.1817 23° Northeast 395 455 18,200 2,220 Climbing Houston Center
10:53AM 30.3392 -95.1308 23° Northeast 405 466 20,300 2,160 Climbing Houston Center
10:54AM 30.4561 -95.0714 24° Northeast 410 472 22,700 1,800 Climbing Houston Center
10:55AM 30.5653 -95.0167 23° Northeast 420 483 24,100 1,320 Climbing Houston Center
10:56AM 30.6772 -94.9614 23° Northeast 435 501 25,500 1,320 Climbing Houston Center
10:57AM 30.7939 -94.9028 23° Northeast 451 519 26,900 1,320 Climbing Houston Center
10:58AM 30.9375 -94.8303 23° Northeast 469 540 28,300 1,320 Climbing Houston Center
10:59AM 31.0581 -94.7697 23° Northeast 473 544 29,700 1,380 Climbing Houston Center
11:00AM 31.1828 -94.7044 24° Northeast 473 544 31,200 1,260 Climbing Houston Center
11:01AM 31.2856 -94.6308 31° Northeast 477 549 32,400 1,260 Climbing Houston Center
11:02AM 31.4208 -94.5389 30° Northeast 474 545 33,900 1,140 Climbing Houston Center
11:03AM 31.5344 -94.4608 30° Northeast 474 545 34,800 480 Climbing Houston Center
11:04AM 31.6486 -94.3811 31° Northeast 477 549 35,000 480 Climbing Houston Center
11:05AM 31.7614 -94.3019 31° Northeast 474 545 35,900 780 Climbing Houston Center
11:06AM 31.8806 -94.2208 30° Northeast 477 549 36,600 540 Climbing Fort Worth Center
11:07AM 31.9933 -94.1408 31° Northeast 477 549 37,000 180 Climbing Fort Worth Center
11:08AM 32.1083 -94.0681 28° Northeast 472 543 37,000  Level Fort Worth Center
11:09AM 32.2156 -94.0125 24° Northeast 462 532 37,000  Level Fort Worth Center
11:10AM 32.3350 -93.9517 23° Northeast 462 532 37,000  Level Fort Worth Center
11:11AM 32.4564 -93.8928 22° Northeast 457 526 37,000  Level Fort Worth Center
11:12AM 32.5758 -93.8364 22° Northeast 457 526 37,000  Level Fort Worth Center
11:13AM 32.6911 -93.7750 24° Northeast 457 526 37,000  Level Fort Worth Center
11:14AM 32.8128 -93.7256 19° North 457 526 37,000  Level Fort Worth Center
11:15AM 32.9342 -93.6686 21° North 457 526 37,000  Level Fort Worth Center
11:16AM 33.0558 -93.6139 21° North 457 526 37,000  Level Fort Worth Center
11:17AM 33.1750 -93.5592 21° North 462 532 37,000  Level Fort Worth Center
11:18AM 33.3008 -93.5042 20° North 462 532 37,000  Level Fort Worth Center
11:20AM 33.4836 -93.4178 22° Northeast 469 540 37,000  Level Kansas City Center
11:20AM 33.5389 -93.3978 17° North 461 531 37,000  Level Memphis Center
11:21AM 33.6550 -93.3469 20° North 461 531 37,000  Level Memphis Center
11:22AM 33.7753 -93.2911 21° North 455 524 37,000  Level Memphis Center
11:23AM 33.8933 -93.2400 20° North 455 524 37,000  Level Memphis Center
11:24AM 34.0094 -93.1836 22° Northeast 455 524 37,000  Level Memphis Center
11:25AM 34.1294 -93.1300 20° North 455 524 37,000  Level Memphis Center
11:26AM 34.2497 -93.0733 21° North 455 524 37,000  Level Memphis Center
11:27AM 34.3656 -93.0167 22° Northeast 455 524 37,000  Level Memphis Center
11:28AM 34.4836 -92.9600 22° Northeast 455 524 37,000  Level Memphis Center
11:29AM 34.6058 -92.9056 20° North 455 524 37,000  Level Memphis Center
11:30AM 34.7239 -92.8486 22° Northeast 455 524 37,000  Level Memphis Center
11:31AM 34.8461 -92.7914 21° North 455 524 37,000  Level Memphis Center
11:32AM 34.9661 -92.7314 22° Northeast 455 524 37,000  Level Memphis Center
11:33AM 35.0861 -92.6739 21° North 455 524 37,000  Level Memphis Center
11:34AM 35.2208 -92.6089 22° Northeast 461 531 37,000  Level Memphis Center
11:35AM 35.3428 -92.5511 21° North 461 531 37,000  Level Memphis Center
11:36AM 35.4647 -92.4933 21° North 461 531 37,000  Level Memphis Center
11:37AM 35.5889 -92.4350 21° North 461 531 37,000  Level Memphis Center
11:38AM 35.7108 -92.3769 21° North 466 536 37,000  Level Memphis Center
11:39AM 35.8347 -92.3158 22° Northeast 466 536 37,000  Level Memphis Center
11:40AM 35.9564 -92.2597 20° North 466 536 37,000  Level Memphis Center
11:41AM 36.0783 -92.1983 22° Northeast 466 536 37,000  Level Memphis Center
11:42AM 36.2003 -92.1394 21° North 466 536 37,000  Level Memphis Center
11:43AM 36.3219 -92.0803 21° North 471 542 37,000  Level Memphis Center
11:44AM 36.4436 -92.0208 21° North 471 542 37,000  Level Memphis Center
11:45AM 36.5486 -91.9686 22° Northeast 463 533 37,000  Level Memphis Center
11:47AM 36.7406 -91.8694 22° Northeast 469 540 37,000  Level Kansas City Center
11:48AM 36.8622 -91.8089 22° Northeast 470 541 37,000  Level Kansas City Center
11:49AM 36.9839 -91.7508 21° North 470 541 37,000  Level Kansas City Center
11:50AM 37.1047 -91.6897 22° Northeast 467 537 37,000  Level Kansas City Center
11:51AM 37.2281 -91.6286 22° Northeast 471 542 37,000  Level Kansas City Center
11:52AM 37.3519 -91.5639 23° Northeast 475 547 37,000  Level Kansas City Center
11:53AM 37.5050 -91.5006 18° North 480 552 37,000  Level Kansas City Center
11:54AM 37.6333 -91.4686 11° North 474 545 37,000  Level Kansas City Center
11:55AM 37.7625 -91.4372 11° North 474 545 37,000  Level Kansas City Center
11:56AM 37.8922 -91.4058 11° North 475 547 37,000  Level Kansas City Center
11:57AM 38.0217 -91.3792 North 474 545 37,000  Level Kansas City Center
11:58AM 38.1775 -91.3492 North 473 544 37,000  Level Kansas City Center
11:59AM 38.3097 -91.3217 North 475 547 37,000  Level Kansas City Center
12:00PM 38.4394 -91.2842 13° North 477 549 37,000  Level Kansas City Center
12:01PM 38.5617 -91.2211 22° Northeast 475 547 37,000  Level Kansas City Center
12:02PM 38.6786 -91.1394 29° Northeast 476 548 37,000  Level Kansas City Center
12:03PM 38.7950 -91.0553 29° Northeast 478 550 37,000  Level Kansas City Center
12:04PM 38.9106 -90.9661 31° Northeast 480 552 37,000  Level Kansas City Center
12:05PM 39.0253 -90.8758 31° Northeast 481 554 37,000  Level Kansas City Center
12:06PM 39.1508 -90.8078 23° Northeast 486 559 37,000  Level Kansas City Center
12:07PM 39.3083 -90.7442 17° North 490 564 37,000  Level Kansas City Center
12:08PM 39.4331 -90.6733 24° Northeast 490 564 37,000  Level Kansas City Center
12:09PM 39.5544 -90.5889 28° Northeast 493 567 37,000 -300 Level Kansas City Center
12:10PM 39.6750 -90.5033 29° Northeast 493 567 36,500 -1,020 Descending Kansas City Center
12:12PM 39.7947 -90.4217 28° Northeast 491 565 35,000 -1,260 Descending Kansas City Center
12:13PM 39.9147 -90.3361 29° Northeast 490 564 34,000 -1,560 Descending Kansas City Center
12:14PM 40.0581 -90.2344 28° Northeast 489 563 31,800 -1,500 Descending Kansas City Center
12:15PM 40.1761 -90.1517 28° Northeast 487 560 31,000 -420 Descending Kansas City Center
12:16PM 40.2925 -90.0703 28° Northeast 481 554 31,000  Level Kansas City Center
12:17PM 40.4083 -89.9872 29° Northeast 477 549 31,000  Level Kansas City Center
12:18PM 40.5231 -89.9053 28° Northeast 474 545 31,000 -300 Level Kansas City Center
12:19PM 40.6403 -89.8228 28° Northeast 475 547 30,400 -1,320 Descending Kansas City Center
12:20PM 40.7358 -89.6597 52° Northeast 487 560 28,300 -2,640 Descending Kansas City Center
12:21PM 40.7956 -89.5256 60° Northeast 464 534 25,000 -3,300 Descending Kansas City Center
12:22PM 40.8622 -89.3711 60° Northeast 484 557 21,400 -3,180 Descending Chicago Center
12:23PM 40.9469 -89.1914 58° Northeast 460 529 18,300 -2,520 Descending Chicago Center
12:24PM 41.0289 -89.0750 47° Northeast 452 520 16,200 -2,520 Descending Chicago Center
12:25PM 41.1111 -88.9567 47° Northeast 441 507 13,200 -2,640 Descending Chicago Center
12:26PM 41.1919 -88.8386 48° Northeast 436 502 10,900 -1,620 Descending Chicago Center
12:27PM 41.2761 -88.7125 48° Northeast 379 436 9,900 -1,320 Descending Chicago Center
12:28PM 41.3381 -88.6233 47° Northeast 336 387 8,200 -1,440 Descending Chicago Center
12:29PM 41.3981 -88.5364 47° Northeast 324 373 7,000 -1,080 Descending Chicago Center
12:30PM 41.4364 -88.4358 63° Northeast 308 354 6,000 -780 Descending Chicago Center
12:31PM 41.4700 -88.3375 65° Northeast 295 339 5,400 -540 Descending Chicago Center
12:32PM 41.5044 -88.2350 66° East 298 343 5,000 -240 Descending Chicago Center
12:33PM 41.5392 -88.1286 66° East 307 353 5,000  Level Chicago Center
12:34PM 41.5489 -87.9936 84° East 299 344 5,000  Level Chicago Center
12:35PM 41.5586 -87.8839 83° East 296 341 5,000 -300 Level Chicago Center
12:36PM 41.5822 -87.7847 72° East 286 329 4,500 -840 Descending Chicago Center
12:37PM 41.6078 -87.6928 70° East 273 314 3,300 -1,020 Descending Chicago Center
12:38PM 41.6481 -87.6250 51° Northeast 266 306 2,500 -420 Descending Chicago Center
12:39PM 41.7089 -87.6489 344° North 243 280 2,500 -420 Level Chicago Center
12:41PM 41.7553 -87.7083 316° Northwest 208 239 1,700 -300 Descending Chicago Center
12:42PM 41.8047 -87.6869 18° North 195 224 1,900 -240 Climbing Chicago Center
12:43PM 41.8114 -87.7186 286° West 169 194 1,300 -420 Descending Chicago Center
12:44PM 41.7883 -87.7489 224° Southwest 159 183 1,100 -240 Descending Chicago Center